sensor_id;sensor_type;location;lat;lon;timestamp;pressure;altitude;pressure_sealevel;temperature;humidity
39177;BME280;24904;52.208;21.192;2023-01-28T00:01:55;101269.67;;;1.90;75.25
39177;BME280;24904;52.208;21.192;2023-01-28T00:07:00;101269.55;;;1.92;75.32
39177;BME280;24904;52.208;21.192;2023-01-28T00:12:06;101273.28;;;1.89;75.45
39177;BME280;24904;52.208;21.192;2023-01-28T00:17:11;101273.91;;;1.90;75.60
39177;BME280;24904;52.208;21.192;2023-01-28T00:22:16;101275.09;;;1.93;75.65
39177;BME280;24904;52.208;21.192;2023-01-28T00:27:21;101277.02;;;1.91;75.41
39177;BME280;24904;52.208;21.192;2023-01-28T00:32:26;101272.19;;;1.90;75.44
39177;BME280;24904;52.208;21.192;2023-01-28T00:37:31;101270.27;;;1.87;75.69
39177;BME280;24904;52.208;21.192;2023-01-28T00:42:36;101269.65;;;1.89;75.80
39177;BME280;24904;52.208;21.192;2023-01-28T00:47:41;101269.14;;;1.97;75.66
39177;BME280;24904;52.208;21.192;2023-01-28T00:52:48;101272.81;;;1.98;75.39
39177;BME280;24904;52.208;21.192;2023-01-28T00:57:52;101268.54;;;1.98;75.47
39177;BME280;24904;52.208;21.192;2023-01-28T01:02:58;101267.94;;;1.94;75.25
39177;BME280;24904;52.208;21.192;2023-01-28T01:08:03;101269.60;;;1.94;75.57
39177;BME280;24904;52.208;21.192;2023-01-28T01:13:08;101270.57;;;1.99;75.66
39177;BME280;24904;52.208;21.192;2023-01-28T01:18:13;101271.06;;;2.01;75.54
39177;BME280;24904;52.208;21.192;2023-01-28T01:23:18;101272.29;;;2.03;75.60
39177;BME280;24904;52.208;21.192;2023-01-28T01:28:23;101271.93;;;2.02;75.64
39177;BME280;24904;52.208;21.192;2023-01-28T01:33:31;101267.30;;;2.03;75.55
39177;BME280;24904;52.208;21.192;2023-01-28T01:38:36;101265.78;;;2.09;75.52
39177;BME280;24904;52.208;21.192;2023-01-28T01:43:52;101264.17;;;2.12;75.53
39177;BME280;24904;52.208;21.192;2023-01-28T01:49:02;101267.39;;;2.14;75.67
39177;BME280;24904;52.208;21.192;2023-01-28T01:54:10;101269.35;;;2.13;75.11
39177;BME280;24904;52.208;21.192;2023-01-28T01:59:19;101268.87;;;2.06;75.43
39177;BME280;24904;52.208;21.192;2023-01-28T02:04:30;101265.45;;;2.14;75.36
39177;BME280;24904;52.208;21.192;2023-01-28T02:09:36;101269.52;;;2.17;75.38
39177;BME280;24904;52.208;21.192;2023-01-28T02:14:43;101272.09;;;2.12;75.42
39177;BME280;24904;52.208;21.192;2023-01-28T02:19:55;101269.87;;;2.08;75.48
39177;BME280;24904;52.208;21.192;2023-01-28T02:30:51;101273.72;;;2.18;75.67
39177;BME280;24904;52.208;21.192;2023-01-28T02:35:59;101268.91;;;2.20;75.57
39177;BME280;24904;52.208;21.192;2023-01-28T02:41:10;101270.09;;;2.30;75.73
39177;BME280;24904;52.208;21.192;2023-01-28T02:46:32;101271.73;;;2.30;75.50
39177;BME280;24904;52.208;21.192;2023-01-28T02:52:07;101273.95;;;2.29;75.60
39177;BME280;24904;52.208;21.192;2023-01-28T02:57:29;101274.08;;;2.32;75.70
39177;BME280;24904;52.208;21.192;2023-01-28T03:02:43;101280.66;;;2.33;75.80
39177;BME280;24904;52.208;21.192;2023-01-28T03:07:53;101277.94;;;2.33;75.80
39177;BME280;24904;52.208;21.192;2023-01-28T03:12:59;101279.38;;;2.32;75.66
39177;BME280;24904;52.208;21.192;2023-01-28T03:18:24;101276.66;;;2.35;75.91
39177;BME280;24904;52.208;21.192;2023-01-28T03:23:55;101282.13;;;2.33;75.77
39177;BME280;24904;52.208;21.192;2023-01-28T03:29:22;101283.27;;;2.26;75.79
39177;BME280;24904;52.208;21.192;2023-01-28T03:34:47;101276.98;;;2.23;76.11
39177;BME280;24904;52.208;21.192;2023-01-28T03:40:12;101278.23;;;2.27;76.00
39177;BME280;24904;52.208;21.192;2023-01-28T03:45:19;101273.11;;;2.26;75.98
39177;BME280;24904;52.208;21.192;2023-01-28T03:50:26;101278.34;;;2.24;76.09
39177;BME280;24904;52.208;21.192;2023-01-28T03:55:34;101278.20;;;2.22;76.06
39177;BME280;24904;52.208;21.192;2023-01-28T04:00:39;101277.61;;;2.16;76.08
39177;BME280;24904;52.208;21.192;2023-01-28T04:05:46;101275.97;;;2.19;76.66
39177;BME280;24904;52.208;21.192;2023-01-28T04:10:52;101271.02;;;2.23;76.12
39177;BME280;24904;52.208;21.192;2023-01-28T04:16:07;101273.72;;;2.24;76.27
39177;BME280;24904;52.208;21.192;2023-01-28T04:21:18;101278.89;;;2.26;76.02
39177;BME280;24904;52.208;21.192;2023-01-28T04:26:23;101279.18;;;2.21;76.13
39177;BME280;24904;52.208;21.192;2023-01-28T04:31:29;101279.02;;;2.18;76.18
39177;BME280;24904;52.208;21.192;2023-01-28T04:36:52;101279.98;;;2.16;75.92
39177;BME280;24904;52.208;21.192;2023-01-28T04:42:16;101280.92;;;2.18;76.13
39177;BME280;24904;52.208;21.192;2023-01-28T04:47:38;101284.80;;;2.19;75.89
39177;BME280;24904;52.208;21.192;2023-01-28T04:53:00;101286.00;;;2.16;76.10
39177;BME280;24904;52.208;21.192;2023-01-28T04:58:25;101280.39;;;2.18;76.12
39177;BME280;24904;52.208;21.192;2023-01-28T05:03:34;101285.36;;;2.18;76.19
39177;BME280;24904;52.208;21.192;2023-01-28T05:08:39;101287.39;;;2.17;75.96
39177;BME280;24904;52.208;21.192;2023-01-28T05:13:45;101288.89;;;2.15;76.20
39177;BME280;24904;52.208;21.192;2023-01-28T05:18:51;101289.44;;;2.20;76.49
39177;BME280;24904;52.208;21.192;2023-01-28T05:23:57;101286.23;;;2.21;76.28
39177;BME280;24904;52.208;21.192;2023-01-28T05:29:02;101291.91;;;2.19;76.03
39177;BME280;24904;52.208;21.192;2023-01-28T05:34:07;101293.70;;;2.17;76.19
39177;BME280;24904;52.208;21.192;2023-01-28T05:39:13;101293.66;;;2.15;76.18
39177;BME280;24904;52.208;21.192;2023-01-28T05:44:19;101299.05;;;2.17;76.24
39177;BME280;24904;52.208;21.192;2023-01-28T05:49:46;101303.32;;;2.17;76.26
39177;BME280;24904;52.208;21.192;2023-01-28T05:55:10;101303.80;;;2.17;76.11
39177;BME280;24904;52.208;21.192;2023-01-28T06:00:17;101306.13;;;2.11;76.19
39177;BME280;24904;52.208;21.192;2023-01-28T06:05:22;101304.02;;;2.11;76.31
39177;BME280;24904;52.208;21.192;2023-01-28T06:10:27;101308.27;;;2.17;76.28
39177;BME280;24904;52.208;21.192;2023-01-28T06:15:32;101313.86;;;2.21;76.36
39177;BME280;24904;52.208;21.192;2023-01-28T06:20:56;101321.27;;;2.22;76.22
39177;BME280;24904;52.208;21.192;2023-01-28T06:26:02;101321.61;;;2.21;76.02
39177;BME280;24904;52.208;21.192;2023-01-28T06:31:11;101322.11;;;2.24;76.20
39177;BME280;24904;52.208;21.192;2023-01-28T06:36:16;101329.90;;;2.24;76.10
39177;BME280;24904;52.208;21.192;2023-01-28T06:41:21;101332.48;;;2.22;76.17
39177;BME280;24904;52.208;21.192;2023-01-28T06:46:26;101335.23;;;2.17;76.52
39177;BME280;24904;52.208;21.192;2023-01-28T06:51:32;101340.41;;;2.19;76.11
39177;BME280;24904;52.208;21.192;2023-01-28T06:56:37;101339.08;;;2.11;76.25
39177;BME280;24904;52.208;21.192;2023-01-28T07:01:42;101343.80;;;2.09;76.67
39177;BME280;24904;52.208;21.192;2023-01-28T07:06:47;101349.20;;;2.11;76.67
39177;BME280;24904;52.208;21.192;2023-01-28T07:11:52;101352.75;;;2.16;76.82
39177;BME280;24904;52.208;21.192;2023-01-28T07:16:56;101357.97;;;2.22;76.81
39177;BME280;24904;52.208;21.192;2023-01-28T07:22:01;101358.91;;;2.29;76.83
39177;BME280;24904;52.208;21.192;2023-01-28T07:27:06;101354.94;;;2.35;76.75
39177;BME280;24904;52.208;21.192;2023-01-28T07:32:11;101356.35;;;2.38;76.93
39177;BME280;24904;52.208;21.192;2023-01-28T07:37:16;101357.06;;;2.34;76.41
39177;BME280;24904;52.208;21.192;2023-01-28T07:42:22;101364.13;;;2.33;76.86
39177;BME280;24904;52.208;21.192;2023-01-28T07:47:29;101365.41;;;2.31;77.07
39177;BME280;24904;52.208;21.192;2023-01-28T07:52:34;101360.15;;;2.34;76.88
39177;BME280;24904;52.208;21.192;2023-01-28T07:57:54;101362.13;;;2.29;76.97
39177;BME280;24904;52.208;21.192;2023-01-28T08:03:02;101364.27;;;2.30;77.09
39177;BME280;24904;52.208;21.192;2023-01-28T08:08:08;101360.95;;;2.32;76.76
39177;BME280;24904;52.208;21.192;2023-01-28T08:13:14;101363.52;;;2.30;76.90
39177;BME280;24904;52.208;21.192;2023-01-28T08:18:20;101367.36;;;2.37;77.24
39177;BME280;24904;52.208;21.192;2023-01-28T08:23:25;101359.36;;;2.40;77.03
39177;BME280;24904;52.208;21.192;2023-01-28T08:28:31;101366.32;;;2.35;77.09
39177;BME280;24904;52.208;21.192;2023-01-28T08:33:36;101370.19;;;2.31;76.60
39177;BME280;24904;52.208;21.192;2023-01-28T08:38:41;101366.07;;;2.28;76.96
39177;BME280;24904;52.208;21.192;2023-01-28T08:43:47;101361.15;;;2.36;77.36
39177;BME280;24904;52.208;21.192;2023-01-28T08:48:52;101367.08;;;2.38;77.21
39177;BME280;24904;52.208;21.192;2023-01-28T08:53:58;101367.36;;;2.36;77.27
39177;BME280;24904;52.208;21.192;2023-01-28T08:59:03;101367.23;;;2.38;77.10
39177;BME280;24904;52.208;21.192;2023-01-28T09:04:08;101368.65;;;2.38;77.07
39177;BME280;24904;52.208;21.192;2023-01-28T09:09:13;101372.58;;;2.40;77.24
39177;BME280;24904;52.208;21.192;2023-01-28T09:14:18;101380.04;;;2.45;77.26
39177;BME280;24904;52.208;21.192;2023-01-28T09:19:23;101385.20;;;2.47;77.06
39177;BME280;24904;52.208;21.192;2023-01-28T09:24:28;101394.55;;;2.46;77.23
39177;BME280;24904;52.208;21.192;2023-01-28T09:29:34;101392.58;;;2.47;77.19
39177;BME280;24904;52.208;21.192;2023-01-28T09:34:40;101397.63;;;2.47;77.29
39177;BME280;24904;52.208;21.192;2023-01-28T09:39:46;101394.95;;;2.48;77.22
39177;BME280;24904;52.208;21.192;2023-01-28T09:45:02;101397.53;;;2.52;77.32
39177;BME280;24904;52.208;21.192;2023-01-28T09:50:16;101396.03;;;2.55;77.31
39177;BME280;24904;52.208;21.192;2023-01-28T09:55:29;101390.84;;;2.53;77.06
39177;BME280;24904;52.208;21.192;2023-01-28T10:00:39;101391.84;;;2.51;77.22
39177;BME280;24904;52.208;21.192;2023-01-28T10:05:52;101384.00;;;2.48;77.21
39177;BME280;24904;52.208;21.192;2023-01-28T10:11:04;101382.35;;;2.53;77.41
39177;BME280;24904;52.208;21.192;2023-01-28T10:16:20;101380.45;;;2.57;77.11
39177;BME280;24904;52.208;21.192;2023-01-28T10:21:30;101376.17;;;2.56;77.12
39177;BME280;24904;52.208;21.192;2023-01-28T10:26:39;101375.47;;;2.52;77.16
39177;BME280;24904;52.208;21.192;2023-01-28T10:31:52;101372.67;;;2.50;76.77
39177;BME280;24904;52.208;21.192;2023-01-28T10:36:58;101375.11;;;2.50;76.92
39177;BME280;24904;52.208;21.192;2023-01-28T10:42:15;101375.13;;;2.47;77.05
39177;BME280;24904;52.208;21.192;2023-01-28T10:47:30;101369.82;;;2.50;77.10
39177;BME280;24904;52.208;21.192;2023-01-28T10:52:36;101367.27;;;2.46;77.12
39177;BME280;24904;52.208;21.192;2023-01-28T10:57:43;101363.91;;;2.46;77.16
39177;BME280;24904;52.208;21.192;2023-01-28T11:02:49;101365.98;;;2.42;76.86
39177;BME280;24904;52.208;21.192;2023-01-28T11:08:16;101361.86;;;2.46;77.36
39177;BME280;24904;52.208;21.192;2023-01-28T11:13:23;101357.72;;;2.54;77.26
39177;BME280;24904;52.208;21.192;2023-01-28T11:18:31;101351.71;;;2.56;77.05
39177;BME280;24904;52.208;21.192;2023-01-28T11:23:40;101349.84;;;2.55;76.94
39177;BME280;24904;52.208;21.192;2023-01-28T11:28:51;101342.49;;;2.52;77.32
39177;BME280;24904;52.208;21.192;2023-01-28T11:33:58;101345.58;;;2.53;77.05
39177;BME280;24904;52.208;21.192;2023-01-28T11:39:17;101342.17;;;2.53;77.11
39177;BME280;24904;52.208;21.192;2023-01-28T11:44:25;101341.98;;;2.50;77.07
39177;BME280;24904;52.208;21.192;2023-01-28T11:49:40;101338.21;;;2.49;76.76
39177;BME280;24904;52.208;21.192;2023-01-28T11:54:56;101334.39;;;2.48;76.98
39177;BME280;24904;52.208;21.192;2023-01-28T12:05:47;101335.42;;;2.42;76.94
39177;BME280;24904;52.208;21.192;2023-01-28T12:11:19;101331.37;;;2.41;77.01
39177;BME280;24904;52.208;21.192;2023-01-28T12:16:59;101331.79;;;2.38;76.83
39177;BME280;24904;52.208;21.192;2023-01-28T12:22:20;101327.42;;;2.41;77.17
39177;BME280;24904;52.208;21.192;2023-01-28T12:27:37;101329.59;;;2.41;76.83
39177;BME280;24904;52.208;21.192;2023-01-28T12:32:56;101330.35;;;2.41;76.94
39177;BME280;24904;52.208;21.192;2023-01-28T12:38:14;101330.79;;;2.44;77.19
39177;BME280;24904;52.208;21.192;2023-01-28T12:43:24;101331.08;;;2.45;76.86
39177;BME280;24904;52.208;21.192;2023-01-28T12:48:36;101327.27;;;2.46;76.73
39177;BME280;24904;52.208;21.192;2023-01-28T12:53:46;101324.95;;;2.48;76.79
39177;BME280;24904;52.208;21.192;2023-01-28T12:58:56;101327.96;;;2.46;76.64
39177;BME280;24904;52.208;21.192;2023-01-28T13:04:05;101335.38;;;2.47;77.01
39177;BME280;24904;52.208;21.192;2023-01-28T13:09:16;101340.66;;;2.46;76.72
39177;BME280;24904;52.208;21.192;2023-01-28T13:14:26;101330.45;;;2.44;76.71
39177;BME280;24904;52.208;21.192;2023-01-28T13:19:40;101331.56;;;2.45;76.59
39177;BME280;24904;52.208;21.192;2023-01-28T13:24:45;101329.30;;;2.42;76.56
39177;BME280;24904;52.208;21.192;2023-01-28T13:30:02;101332.30;;;2.44;76.79
39177;BME280;24904;52.208;21.192;2023-01-28T13:35:29;101334.13;;;2.44;76.80
39177;BME280;24904;52.208;21.192;2023-01-28T13:40:34;101336.84;;;2.42;76.37
39177;BME280;24904;52.208;21.192;2023-01-28T13:45:40;101336.39;;;2.38;76.53
39177;BME280;24904;52.208;21.192;2023-01-28T13:50:46;101338.91;;;2.34;76.50
39177;BME280;24904;52.208;21.192;2023-01-28T13:55:54;101337.98;;;2.32;76.73
39177;BME280;24904;52.208;21.192;2023-01-28T14:01:23;101337.88;;;2.32;76.42
39177;BME280;24904;52.208;21.192;2023-01-28T14:12:33;101332.80;;;2.39;76.61
39177;BME280;24904;52.208;21.192;2023-01-28T14:17:45;101324.73;;;2.33;76.30
39177;BME280;24904;52.208;21.192;2023-01-28T14:22:53;101329.52;;;2.35;76.54
39177;BME280;24904;52.208;21.192;2023-01-28T14:28:03;101334.50;;;2.35;76.71
39177;BME280;24904;52.208;21.192;2023-01-28T14:33:12;101331.39;;;2.36;76.59
39177;BME280;24904;52.208;21.192;2023-01-28T14:38:19;101334.27;;;2.40;76.50
39177;BME280;24904;52.208;21.192;2023-01-28T14:43:25;101338.67;;;2.43;76.64
39177;BME280;24904;52.208;21.192;2023-01-28T14:48:35;101340.73;;;2.38;76.46
39177;BME280;24904;52.208;21.192;2023-01-28T14:53:59;101342.67;;;2.36;76.29
39177;BME280;24904;52.208;21.192;2023-01-28T14:59:19;101339.52;;;2.33;76.29
39177;BME280;24904;52.208;21.192;2023-01-28T15:04:27;101339.67;;;2.33;76.23
39177;BME280;24904;52.208;21.192;2023-01-28T15:09:32;101338.52;;;2.37;76.48
39177;BME280;24904;52.208;21.192;2023-01-28T15:14:37;101340.02;;;2.38;76.25
39177;BME280;24904;52.208;21.192;2023-01-28T15:19:43;101352.80;;;2.33;75.99
39177;BME280;24904;52.208;21.192;2023-01-28T15:24:48;101347.92;;;2.30;75.84
39177;BME280;24904;52.208;21.192;2023-01-28T15:29:55;101357.05;;;2.28;76.03
39177;BME280;24904;52.208;21.192;2023-01-28T15:35:00;101361.20;;;2.30;75.89
39177;BME280;24904;52.208;21.192;2023-01-28T15:40:19;101360.81;;;2.31;75.96
39177;BME280;24904;52.208;21.192;2023-01-28T15:45:25;101362.94;;;2.30;75.93
39177;BME280;24904;52.208;21.192;2023-01-28T15:50:31;101364.35;;;2.33;75.98
39177;BME280;24904;52.208;21.192;2023-01-28T15:55:38;101371.38;;;2.27;75.93
39177;BME280;24904;52.208;21.192;2023-01-28T16:00:43;101374.79;;;2.20;75.81
39177;BME280;24904;52.208;21.192;2023-01-28T16:05:59;101369.09;;;2.18;75.75
39177;BME280;24904;52.208;21.192;2023-01-28T16:11:06;101367.95;;;2.24;75.76
39177;BME280;24904;52.208;21.192;2023-01-28T16:16:12;101368.85;;;2.24;75.89
39177;BME280;24904;52.208;21.192;2023-01-28T16:21:23;101373.48;;;2.25;75.63
39177;BME280;24904;52.208;21.192;2023-01-28T16:26:30;101383.38;;;2.26;75.24
39177;BME280;24904;52.208;21.192;2023-01-28T16:31:35;101384.00;;;2.24;75.26
39177;BME280;24904;52.208;21.192;2023-01-28T16:36:40;101377.70;;;2.25;75.00
39177;BME280;24904;52.208;21.192;2023-01-28T16:41:46;101375.33;;;2.24;75.40
39177;BME280;24904;52.208;21.192;2023-01-28T16:46:52;101378.20;;;2.24;75.33
39177;BME280;24904;52.208;21.192;2023-01-28T16:51:57;101377.79;;;2.27;75.20
39177;BME280;24904;52.208;21.192;2023-01-28T16:57:03;101382.83;;;2.22;74.85
39177;BME280;24904;52.208;21.192;2023-01-28T17:02:09;101384.88;;;2.20;74.97
39177;BME280;24904;52.208;21.192;2023-01-28T17:07:14;101391.96;;;2.15;75.06
39177;BME280;24904;52.208;21.192;2023-01-28T17:12:19;101382.85;;;2.10;74.91
39177;BME280;24904;52.208;21.192;2023-01-28T17:17:24;101384.25;;;2.11;74.33
39177;BME280;24904;52.208;21.192;2023-01-28T17:22:29;101389.35;;;2.12;73.92
39177;BME280;24904;52.208;21.192;2023-01-28T17:27:34;101384.98;;;2.13;73.75
39177;BME280;24904;52.208;21.192;2023-01-28T17:32:39;101384.89;;;2.09;73.69
39177;BME280;24904;52.208;21.192;2023-01-28T17:37:44;101386.72;;;2.09;73.45
39177;BME280;24904;52.208;21.192;2023-01-28T17:42:49;101394.17;;;2.12;73.64
39177;BME280;24904;52.208;21.192;2023-01-28T17:47:54;101396.42;;;2.09;72.64
39177;BME280;24904;52.208;21.192;2023-01-28T17:52:59;101392.64;;;2.01;72.89
39177;BME280;24904;52.208;21.192;2023-01-28T17:58:04;101399.42;;;2.01;72.71
39177;BME280;24904;52.208;21.192;2023-01-28T18:03:12;101401.48;;;2.03;72.65
39177;BME280;24904;52.208;21.192;2023-01-28T18:08:17;101407.45;;;2.03;72.10
39177;BME280;24904;52.208;21.192;2023-01-28T18:13:22;101404.02;;;2.00;72.29
39177;BME280;24904;52.208;21.192;2023-01-28T18:18:27;101404.91;;;2.02;72.19
39177;BME280;24904;52.208;21.192;2023-01-28T18:23:33;101414.41;;;2.02;71.95
39177;BME280;24904;52.208;21.192;2023-01-28T18:28:38;101413.25;;;1.99;72.12
39177;BME280;24904;52.208;21.192;2023-01-28T18:33:43;101419.19;;;2.01;71.88
39177;BME280;24904;52.208;21.192;2023-01-28T18:38:49;101430.66;;;1.97;71.72
39177;BME280;24904;52.208;21.192;2023-01-28T18:43:54;101434.52;;;2.01;71.96
39177;BME280;24904;52.208;21.192;2023-01-28T18:48:59;101425.02;;;2.03;72.14
39177;BME280;24904;52.208;21.192;2023-01-28T18:54:06;101426.81;;;2.05;71.95
39177;BME280;24904;52.208;21.192;2023-01-28T18:59:12;101426.20;;;2.00;71.85
39177;BME280;24904;52.208;21.192;2023-01-28T19:04:18;101420.39;;;1.95;71.20
39177;BME280;24904;52.208;21.192;2023-01-28T19:09:23;101415.08;;;1.92;71.11
39177;BME280;24904;52.208;21.192;2023-01-28T19:14:28;101421.73;;;1.89;70.69
39177;BME280;24904;52.208;21.192;2023-01-28T19:19:33;101413.65;;;1.90;70.30
39177;BME280;24904;52.208;21.192;2023-01-28T19:24:38;101422.59;;;1.89;69.92
39177;BME280;24904;52.208;21.192;2023-01-28T19:29:43;101418.68;;;1.90;69.96
39177;BME280;24904;52.208;21.192;2023-01-28T19:34:48;101421.70;;;1.87;69.93
39177;BME280;24904;52.208;21.192;2023-01-28T19:39:53;101423.60;;;1.91;69.99
39177;BME280;24904;52.208;21.192;2023-01-28T19:44:58;101422.98;;;1.88;69.46
39177;BME280;24904;52.208;21.192;2023-01-28T19:50:04;101431.60;;;1.89;69.62
39177;BME280;24904;52.208;21.192;2023-01-28T19:55:10;101440.14;;;1.93;69.85
39177;BME280;24904;52.208;21.192;2023-01-28T20:00:16;101434.23;;;1.93;69.44
39177;BME280;24904;52.208;21.192;2023-01-28T20:05:21;101436.81;;;1.91;69.09
39177;BME280;24904;52.208;21.192;2023-01-28T20:10:26;101443.06;;;1.90;68.93
39177;BME280;24904;52.208;21.192;2023-01-28T20:15:31;101453.29;;;1.83;68.78
39177;BME280;24904;52.208;21.192;2023-01-28T20:20:36;101442.29;;;1.82;68.63
39177;BME280;24904;52.208;21.192;2023-01-28T20:25:41;101444.94;;;1.83;68.69
39177;BME280;24904;52.208;21.192;2023-01-28T20:30:47;101445.80;;;1.82;68.36
39177;BME280;24904;52.208;21.192;2023-01-28T20:35:52;101441.25;;;1.83;68.20
39177;BME280;24904;52.208;21.192;2023-01-28T20:41:07;101449.71;;;1.77;67.93
39177;BME280;24904;52.208;21.192;2023-01-28T20:46:14;101454.77;;;1.76;67.90
39177;BME280;24904;52.208;21.192;2023-01-28T20:51:21;101457.54;;;1.71;67.54
39177;BME280;24904;52.208;21.192;2023-01-28T20:56:27;101460.02;;;1.54;66.80
39177;BME280;24904;52.208;21.192;2023-01-28T21:01:35;101458.05;;;1.50;66.78
39177;BME280;24904;52.208;21.192;2023-01-28T21:06:40;101473.47;;;1.31;66.02
39177;BME280;24904;52.208;21.192;2023-01-28T21:11:45;101471.73;;;1.21;65.69
39177;BME280;24904;52.208;21.192;2023-01-28T21:16:50;101479.13;;;1.12;65.91
39177;BME280;24904;52.208;21.192;2023-01-28T21:21:55;101473.08;;;1.10;65.39
39177;BME280;24904;52.208;21.192;2023-01-28T21:27:00;101472.41;;;1.02;65.37
39177;BME280;24904;52.208;21.192;2023-01-28T21:32:06;101466.55;;;0.92;65.57
39177;BME280;24904;52.208;21.192;2023-01-28T21:37:11;101461.34;;;1.00;66.16
39177;BME280;24904;52.208;21.192;2023-01-28T21:42:16;101454.73;;;1.10;66.15
39177;BME280;24904;52.208;21.192;2023-01-28T21:47:21;101439.39;;;1.17;66.31
39177;BME280;24904;52.208;21.192;2023-01-28T21:52:25;101451.96;;;1.13;65.78
39177;BME280;24904;52.208;21.192;2023-01-28T21:57:30;101449.90;;;0.97;65.08
39177;BME280;24904;52.208;21.192;2023-01-28T22:02:35;101433.55;;;0.80;65.01
39177;BME280;24904;52.208;21.192;2023-01-28T22:07:40;101439.65;;;0.81;65.03
39177;BME280;24904;52.208;21.192;2023-01-28T22:12:45;101436.77;;;0.82;65.28
39177;BME280;24904;52.208;21.192;2023-01-28T22:17:50;101421.48;;;0.82;65.07
39177;BME280;24904;52.208;21.192;2023-01-28T22:22:55;101415.09;;;0.78;65.10
39177;BME280;24904;52.208;21.192;2023-01-28T22:28:00;101408.27;;;0.84;65.40
39177;BME280;24904;52.208;21.192;2023-01-28T22:33:05;101408.03;;;0.87;64.84
39177;BME280;24904;52.208;21.192;2023-01-28T22:38:10;101413.19;;;0.78;65.05
39177;BME280;24904;52.208;21.192;2023-01-28T22:43:15;101407.85;;;0.77;65.17
39177;BME280;24904;52.208;21.192;2023-01-28T22:48:20;101421.27;;;0.69;64.99
39177;BME280;24904;52.208;21.192;2023-01-28T22:53:25;101422.87;;;0.61;64.76
39177;BME280;24904;52.208;21.192;2023-01-28T22:58:30;101428.82;;;0.61;64.77
39177;BME280;24904;52.208;21.192;2023-01-28T23:03:36;101441.27;;;0.63;64.47
39177;BME280;24904;52.208;21.192;2023-01-28T23:08:41;101440.02;;;0.59;64.38
39177;BME280;24904;52.208;21.192;2023-01-28T23:13:46;101455.31;;;0.59;63.95
39177;BME280;24904;52.208;21.192;2023-01-28T23:19:10;101464.62;;;0.58;64.15
39177;BME280;24904;52.208;21.192;2023-01-28T23:24:33;101458.67;;;0.64;64.04
39177;BME280;24904;52.208;21.192;2023-01-28T23:29:38;101444.88;;;0.72;64.23
39177;BME280;24904;52.208;21.192;2023-01-28T23:34:44;101445.17;;;0.76;63.60
39177;BME280;24904;52.208;21.192;2023-01-28T23:39:49;101440.73;;;0.63;63.16
39177;BME280;24904;52.208;21.192;2023-01-28T23:44:54;101442.86;;;0.53;63.23
39177;BME280;24904;52.208;21.192;2023-01-28T23:49:59;101436.86;;;0.53;63.52
39177;BME280;24904;52.208;21.192;2023-01-28T23:55:05;101424.98;;;0.52;63.31
